CheckWX is a tool to help pilots better visualize weather data.  It is not intended as a substitute for an official pre-flight weather briefing.

04:29:03 UTC

KMDQ METAR
Huntsville Executive Tom Sharp Jr Field Airport
Huntsville, Alabama, USA
Current

14 mins ago

KMDQ 270415Z AUTO 13003KT 10SM CLR 24/21 A3020 RMK A02 LTG DSNT W T02360207
Observed
Jun-27 @ 04:15 UTC
Wind
  • 130° at 3 KTS
Visibility
10 SM
Flight Rules
VFR
Cloud Levels
  • Clear skies
Temperature
24°C / 75°F
Dewpoint
21°C / 70°F
Humidity
83%
Altimeter
30.2" Hg
Pressure
1022.72 hPa
Previous

34 mins ago

KMDQ 270355Z AUTO 00000KT 10SM CLR 24/20 A3021 RMK A02 LTG DSNT SW AND W T02430205
Observed
Jun-27 @ 03:55 UTC
Visibility
10 SM
Flight Rules
VFR
Cloud Levels
  • Clear skies
Temperature
24°C / 75°F
Dewpoint
21°C / 70°F
Humidity
83%
Altimeter
30.21" Hg
Pressure
1023.02 hPa
Previous

54 mins ago

KMDQ 270335Z AUTO 11003KT 10SM CLR 24/20 A3021 RMK A02 LTG DSNT N AND SW T02450204
Observed
Jun-27 @ 03:35 UTC
Wind
  • 110° at 3 KTS
Visibility
10 SM
Flight Rules
VFR
Cloud Levels
  • Clear skies
Temperature
25°C / 77°F
Dewpoint
20°C / 68°F
Humidity
74%
Altimeter
30.21" Hg
Pressure
1023.02 hPa